ALK89L VCBI-VGHS
Flight info
| Callsign | ALK89L |
|---|---|
| Flight time | 2h 47m |
| Altitude | 39000 |
| Route | ATETA1D ATETA DCT SAGOR DCT SUGAN Q10 PONOG DCT BEMAK A462 AKEVO |
| Aircraft | A332/H-SDE2E3FGHIRWXY/L |
Departure
| Time | 2026-05-04 06:48 |
|---|---|
| Airport | Bandaranaike International Colombo Airport (VCBI) |
Arrival
| Time | 2026-05-04 09:35 |
|---|---|
| Airport | Hazrat Shahjalal International Airport (VGHS) |
| Time | Latitude | Longitude | Altitude | Speed | Heading |
|---|---|---|---|---|---|
| 2026-05-04 06:25 | 7.17224 | 79.88149 | 37 ft | 0 kts | 216° |
| 2026-05-04 06:36 | 7.17247 | 79.88189 | 37 ft | 4 kts | 274° |
| 2026-05-04 06:37 | 7.17241 | 79.88215 | 34 ft | 4 kts | 296° |
| 2026-05-04 06:37 | 7.17233 | 79.88230 | 34 ft | 3 kts | 307° |
| 2026-05-04 06:40 | 7.17262 | 79.88192 | 37 ft | 7 kts | 307° |
| 2026-05-04 06:40 | 7.17303 | 79.88148 | 37 ft | 10 kts | 329° |
| 2026-05-04 06:40 | 7.17368 | 79.88107 | 37 ft | 11 kts | 314° |
| 2026-05-04 06:40 | 7.17427 | 79.88041 | 37 ft | 14 kts | 310° |
| 2026-05-04 06:41 | 7.17487 | 79.87968 | 39 ft | 13 kts | 312° |
| 2026-05-04 06:41 | 7.17559 | 79.87958 | 39 ft | 9 kts | 35° |
| 2026-05-04 06:41 | 7.17620 | 79.88009 | 39 ft | 15 kts | 39° |
| 2026-05-04 06:41 | 7.17728 | 79.88093 | 40 ft | 24 kts | 37° |
| 2026-05-04 06:42 | 7.17867 | 79.88198 | 40 ft | 26 kts | 38° |
| 2026-05-04 06:42 | 7.18015 | 79.88309 | 39 ft | 27 kts | 36° |
| 2026-05-04 06:42 | 7.18165 | 79.88424 | 38 ft | 26 kts | 37° |
| 2026-05-04 06:44 | 7.19235 | 79.89268 | 39 ft | 20 kts | 74° |
| 2026-05-04 06:44 | 7.19257 | 79.89323 | 38 ft | 3 kts | 25° |
| 2026-05-04 06:44 | 7.19273 | 79.89320 | 39 ft | 4 kts | 339° |
| 2026-05-04 06:45 | 7.19289 | 79.89289 | 39 ft | 6 kts | 269° |
| 2026-05-04 06:45 | 7.19264 | 79.89251 | 38 ft | 7 kts | 214° |
| 2026-05-04 06:45 | 7.19218 | 79.89225 | 40 ft | 9 kts | 216° |
| 2026-05-04 06:45 | 7.19202 | 79.89213 | 40 ft | 3 kts | 217° |
| 2026-05-04 06:46 | 7.18979 | 79.89044 | 41 ft | 85 kts | 217° |
| 2026-05-04 06:46 | 7.18271 | 79.88503 | 45 ft | 169 kts | 217° |
| 2026-05-04 06:46 | 7.17134 | 79.87637 | 183 ft | 241 kts | 218° |
| 2026-05-04 06:46 | 7.15563 | 79.86488 | 233 ft | 313 kts | 213° |
| 2026-05-04 06:48 | 7.17568 | 79.77436 | 7090 ft | 272 kts | 351° |
| 2026-05-04 06:48 | 7.19449 | 79.77684 | 7832 ft | 282 kts | 24° |
| 2026-05-04 06:49 | 7.21011 | 79.78895 | 8685 ft | 287 kts | 46° |
| 2026-05-04 06:50 | 7.32783 | 79.89063 | 13519 ft | 350 kts | 38° |
| 2026-05-04 06:51 | 7.34792 | 79.90472 | 14229 ft | 355 kts | 29° |
| 2026-05-04 06:51 | 7.37135 | 79.91304 | 14858 ft | 363 kts | 9° |
| 2026-05-04 06:51 | 7.39667 | 79.91513 | 15510 ft | 368 kts | 2° |
| 2026-05-04 06:51 | 7.42247 | 79.91575 | 16165 ft | 373 kts | 1° |
| 2026-05-04 06:52 | 7.44864 | 79.91621 | 16841 ft | 378 kts | 1° |
| 2026-05-04 06:52 | 7.47506 | 79.91674 | 17478 ft | 383 kts | 1° |
| 2026-05-04 06:52 | 7.50195 | 79.91735 | 18094 ft | 389 kts | 1° |
| 2026-05-04 06:52 | 7.52911 | 79.91801 | 18701 ft | 392 kts | 1° |
| 2026-05-04 06:53 | 7.55648 | 79.91871 | 19261 ft | 395 kts | 1° |
| 2026-05-04 06:53 | 7.58416 | 79.91943 | 19761 ft | 401 kts | 1° |
| 2026-05-04 06:53 | 7.61219 | 79.92016 | 20328 ft | 404 kts | 1° |
| 2026-05-04 06:53 | 7.64036 | 79.92091 | 20904 ft | 407 kts | 1° |
| 2026-05-04 06:54 | 7.66887 | 79.92168 | 21389 ft | 413 kts | 1° |
| 2026-05-04 06:54 | 7.69767 | 79.92246 | 21922 ft | 416 kts | 1° |
| 2026-05-04 06:54 | 7.72661 | 79.92325 | 22514 ft | 418 kts | 1° |
| 2026-05-04 06:54 | 7.75594 | 79.92404 | 22958 ft | 424 kts | 1° |
| 2026-05-04 06:55 | 7.78561 | 79.92485 | 23474 ft | 428 kts | 1° |
| 2026-05-04 06:55 | 7.81542 | 79.92566 | 23937 ft | 430 kts | 2° |
| 2026-05-04 06:55 | 7.84542 | 79.92634 | 24308 ft | 435 kts | 0° |
| 2026-05-04 06:55 | 7.87570 | 79.92410 | 24747 ft | 437 kts | 352° |
| 2026-05-04 06:56 | 7.90571 | 79.91895 | 25259 ft | 438 kts | 349° |
| 2026-05-04 06:57 | 8.12074 | 79.87725 | 28109 ft | 458 kts | 349° |
| 2026-05-04 06:58 | 8.15211 | 79.87119 | 28504 ft | 462 kts | 349° |
| 2026-05-04 06:58 | 8.18382 | 79.86508 | 28817 ft | 466 kts | 350° |
| 2026-05-04 06:58 | 8.21579 | 79.85898 | 29250 ft | 468 kts | 350° |
| 2026-05-04 06:58 | 8.24784 | 79.85289 | 29643 ft | 471 kts | 349° |
| 2026-05-04 06:59 | 8.28010 | 79.84675 | 29935 ft | 475 kts | 350° |
| 2026-05-04 06:59 | 8.31280 | 79.84053 | 30221 ft | 478 kts | 349° |
| 2026-05-04 06:59 | 8.34546 | 79.83431 | 30605 ft | 479 kts | 349° |
| 2026-05-04 06:59 | 8.37834 | 79.82806 | 30903 ft | 482 kts | 349° |
| 2026-05-04 07:01 | 8.61199 | 79.78355 | 33501 ft | 487 kts | 349° |
| 2026-05-04 07:01 | 8.64534 | 79.77719 | 33821 ft | 489 kts | 349° |
| 2026-05-04 07:02 | 8.67873 | 79.77082 | 34220 ft | 487 kts | 349° |
| 2026-05-04 07:02 | 8.71189 | 79.76450 | 34696 ft | 484 kts | 349° |
| 2026-05-04 07:02 | 8.74497 | 79.75819 | 35015 ft | 484 kts | 349° |
| 2026-05-04 07:02 | 8.77811 | 79.75187 | 35358 ft | 484 kts | 349° |
| 2026-05-04 07:03 | 8.81115 | 79.74556 | 35805 ft | 481 kts | 349° |
| 2026-05-04 07:03 | 8.84393 | 79.73931 | 36189 ft | 480 kts | 349° |
| 2026-05-04 07:03 | 8.87683 | 79.73303 | 36445 ft | 482 kts | 349° |
| 2026-05-04 07:03 | 8.90975 | 79.72674 | 36827 ft | 480 kts | 349° |
| 2026-05-04 07:04 | 8.94252 | 79.72049 | 37236 ft | 478 kts | 349° |
| 2026-05-04 07:04 | 8.97522 | 79.71424 | 37544 ft | 479 kts | 349° |
| 2026-05-04 07:04 | 9.00800 | 79.70798 | 37795 ft | 480 kts | 349° |
| 2026-05-04 07:04 | 9.04078 | 79.70172 | 38150 ft | 479 kts | 349° |
| 2026-05-04 07:05 | 9.07346 | 79.69547 | 38506 ft | 477 kts | 349° |
| 2026-05-04 07:05 | 9.10609 | 79.68924 | 38761 ft | 477 kts | 349° |
| 2026-05-04 07:05 | 9.17153 | 79.67673 | 38849 ft | 479 kts | 349° |
| 2026-05-04 07:06 | 9.26972 | 79.65932 | 38846 ft | 480 kts | 356° |
| 2026-05-04 07:06 | 9.30301 | 79.65964 | 38852 ft | 478 kts | 7° |
| 2026-05-04 07:07 | 9.33549 | 79.66635 | 38851 ft | 476 kts | 19° |
| 2026-05-04 07:08 | 9.53428 | 79.78531 | 38843 ft | 475 kts | 34° |
| 2026-05-04 07:09 | 9.56224 | 79.80323 | 38841 ft | 475 kts | 33° |
| 2026-05-04 07:09 | 9.61816 | 79.83882 | 38843 ft | 475 kts | 33° |
| 2026-05-04 07:10 | 9.67414 | 79.87436 | 38847 ft | 475 kts | 33° |
| 2026-05-04 07:12 | 9.88824 | 80.01046 | 38844 ft | 474 kts | 33° |
| 2026-05-04 07:12 | 9.94409 | 80.04600 | 38833 ft | 474 kts | 33° |
| 2026-05-04 07:13 | 10.00038 | 80.08083 | 38834 ft | 474 kts | 28° |
| 2026-05-04 07:13 | 10.05909 | 80.11133 | 38833 ft | 475 kts | 27° |
| 2026-05-04 07:14 | 10.20759 | 80.18534 | 38832 ft | 476 kts | 27° |
| 2026-05-04 07:15 | 10.26690 | 80.21494 | 38831 ft | 474 kts | 27° |
| 2026-05-04 07:15 | 10.32611 | 80.24454 | 38830 ft | 474 kts | 27° |
| 2026-05-04 07:16 | 10.38526 | 80.27414 | 38829 ft | 474 kts | 27° |
| 2026-05-04 07:16 | 10.44449 | 80.30379 | 38827 ft | 474 kts | 27° |
| 2026-05-04 07:17 | 10.50371 | 80.33345 | 38827 ft | 475 kts | 27° |
| 2026-05-04 07:17 | 10.56298 | 80.36313 | 38840 ft | 475 kts | 27° |
| 2026-05-04 07:18 | 10.62218 | 80.39280 | 38823 ft | 475 kts | 27° |
| 2026-05-04 07:18 | 10.68146 | 80.42252 | 38824 ft | 475 kts | 27° |
| 2026-05-04 07:19 | 10.74072 | 80.45225 | 38825 ft | 475 kts | 27° |
| 2026-05-04 07:19 | 10.79994 | 80.48197 | 38825 ft | 475 kts | 26° |
| 2026-05-04 07:20 | 10.85918 | 80.51171 | 38824 ft | 474 kts | 26° |
| 2026-05-04 07:20 | 10.91838 | 80.54144 | 38823 ft | 474 kts | 26° |
| 2026-05-04 07:22 | 11.15500 | 80.66042 | 38828 ft | 475 kts | 26° |
| 2026-05-04 07:23 | 11.21428 | 80.69027 | 38827 ft | 475 kts | 25° |
| 2026-05-04 07:23 | 11.27347 | 80.72008 | 38824 ft | 474 kts | 25° |
| 2026-05-04 07:24 | 11.33263 | 80.74988 | 38829 ft | 474 kts | 25° |
| 2026-05-04 07:24 | 11.39172 | 80.77967 | 38824 ft | 474 kts | 25° |
| 2026-05-04 07:26 | 11.62827 | 80.89906 | 38824 ft | 474 kts | 25° |
| 2026-05-04 07:27 | 11.68742 | 80.92894 | 38820 ft | 475 kts | 26° |
| 2026-05-04 07:27 | 11.74667 | 80.95890 | 38821 ft | 476 kts | 26° |
| 2026-05-04 07:28 | 11.80609 | 80.98895 | 38819 ft | 476 kts | 26° |
| 2026-05-04 07:28 | 11.86549 | 81.01900 | 38821 ft | 476 kts | 26° |
| 2026-05-04 07:29 | 11.92486 | 81.04907 | 38827 ft | 476 kts | 25° |
| 2026-05-04 07:29 | 11.98429 | 81.07917 | 38819 ft | 477 kts | 25° |
| 2026-05-04 07:30 | 12.04368 | 81.10926 | 38816 ft | 477 kts | 25° |
| 2026-05-04 07:30 | 12.10314 | 81.13941 | 38833 ft | 477 kts | 25° |
| 2026-05-04 07:31 | 12.16259 | 81.16957 | 38822 ft | 477 kts | 25° |
| 2026-05-04 07:33 | 12.40050 | 81.29040 | 38818 ft | 479 kts | 26° |
| 2026-05-04 07:33 | 12.46012 | 81.32072 | 38819 ft | 478 kts | 26° |
| 2026-05-04 07:34 | 12.51970 | 81.35104 | 38815 ft | 478 kts | 26° |
| 2026-05-04 07:34 | 12.57929 | 81.38138 | 38818 ft | 478 kts | 26° |
| 2026-05-04 07:35 | 12.63887 | 81.41173 | 38820 ft | 478 kts | 26° |
| 2026-05-04 07:35 | 12.69843 | 81.44208 | 38818 ft | 479 kts | 26° |
| 2026-05-04 07:36 | 12.75807 | 81.47249 | 38814 ft | 479 kts | 26° |
| 2026-05-04 07:38 | 12.99624 | 81.59409 | 38817 ft | 479 kts | 26° |
| 2026-05-04 07:38 | 13.05590 | 81.62460 | 38821 ft | 479 kts | 26° |
| 2026-05-04 07:39 | 13.11561 | 81.65514 | 38815 ft | 480 kts | 26° |
| 2026-05-04 07:39 | 13.17533 | 81.68570 | 38818 ft | 479 kts | 26° |
| 2026-05-04 07:40 | 13.23497 | 81.71624 | 38818 ft | 479 kts | 26° |
| 2026-05-04 07:40 | 13.29466 | 81.74683 | 38818 ft | 479 kts | 26° |
| 2026-05-04 07:41 | 13.35435 | 81.77743 | 38817 ft | 479 kts | 26° |
| 2026-05-04 07:41 | 13.41408 | 81.80807 | 38819 ft | 481 kts | 25° |
| 2026-05-04 07:42 | 13.47393 | 81.83878 | 38813 ft | 482 kts | 25° |
| 2026-05-04 07:42 | 13.53391 | 81.86958 | 38818 ft | 482 kts | 25° |
| 2026-05-04 07:43 | 13.59389 | 81.90040 | 38820 ft | 482 kts | 25° |
| 2026-05-04 07:43 | 13.65384 | 81.93122 | 38820 ft | 482 kts | 25° |
| 2026-05-04 07:44 | 13.71379 | 81.96206 | 38821 ft | 482 kts | 25° |
| 2026-05-04 07:44 | 13.77375 | 81.99292 | 38821 ft | 482 kts | 25° |
| 2026-05-04 07:45 | 13.83367 | 82.02378 | 38820 ft | 481 kts | 25° |
| 2026-05-04 07:45 | 13.89351 | 82.05462 | 38820 ft | 481 kts | 25° |
| 2026-05-04 07:46 | 13.95341 | 82.08550 | 38821 ft | 482 kts | 25° |
| 2026-05-04 07:46 | 14.01333 | 82.11642 | 38823 ft | 482 kts | 25° |
| 2026-05-04 07:47 | 14.07327 | 82.14736 | 38820 ft | 482 kts | 25° |
| 2026-05-04 07:49 | 14.31184 | 82.27069 | 38824 ft | 480 kts | 25° |
| 2026-05-04 07:49 | 14.37154 | 82.30159 | 38824 ft | 480 kts | 25° |
| 2026-05-04 07:50 | 14.43122 | 82.33251 | 38824 ft | 480 kts | 25° |
| 2026-05-04 07:50 | 14.49087 | 82.36343 | 38824 ft | 479 kts | 25° |
| 2026-05-04 07:51 | 14.55029 | 82.39425 | 38823 ft | 478 kts | 25° |
| 2026-05-04 07:51 | 14.60970 | 82.42509 | 38826 ft | 478 kts | 25° |
| 2026-05-04 07:52 | 14.66923 | 82.45600 | 38825 ft | 479 kts | 25° |
| 2026-05-04 07:52 | 14.72882 | 82.48696 | 38827 ft | 479 kts | 25° |
| 2026-05-04 07:54 | 14.96689 | 82.61086 | 38829 ft | 478 kts | 25° |
| 2026-05-04 07:55 | 15.02628 | 82.64181 | 38827 ft | 478 kts | 25° |
| 2026-05-04 07:55 | 15.08575 | 82.67283 | 38825 ft | 478 kts | 25° |
| 2026-05-04 07:56 | 15.14520 | 82.70386 | 38826 ft | 478 kts | 25° |
| 2026-05-04 07:56 | 15.20465 | 82.73490 | 38831 ft | 478 kts | 25° |
| 2026-05-04 07:57 | 15.26409 | 82.76596 | 38831 ft | 478 kts | 25° |
| 2026-05-04 07:57 | 15.32351 | 82.79704 | 38830 ft | 477 kts | 25° |
| 2026-05-04 07:58 | 15.37258 | 82.82271 | 38832 ft | 474 kts | 25° |
| 2026-05-04 07:58 | 15.42920 | 82.85762 | 38838 ft | 475 kts | 35° |
| 2026-05-04 07:59 | 15.48142 | 82.89970 | 38837 ft | 476 kts | 38° |
| 2026-05-04 07:59 | 15.53271 | 82.94314 | 38831 ft | 476 kts | 38° |
| 2026-05-04 08:00 | 15.58387 | 82.98674 | 38835 ft | 477 kts | 38° |
| 2026-05-04 08:02 | 15.78965 | 83.16105 | 38835 ft | 477 kts | 38° |
| 2026-05-04 08:02 | 15.84071 | 83.20433 | 38834 ft | 476 kts | 38° |
| 2026-05-04 08:03 | 15.89237 | 83.24815 | 38838 ft | 476 kts | 38° |
| 2026-05-04 08:03 | 15.94370 | 83.29171 | 38834 ft | 478 kts | 37° |
| 2026-05-04 08:04 | 15.99495 | 83.33524 | 38830 ft | 479 kts | 37° |
| 2026-05-04 08:04 | 16.04660 | 83.37914 | 38831 ft | 479 kts | 37° |
| 2026-05-04 08:05 | 16.09823 | 83.42306 | 38832 ft | 479 kts | 37° |
| 2026-05-04 08:05 | 16.14986 | 83.46701 | 38832 ft | 480 kts | 37° |
| 2026-05-04 08:06 | 16.20144 | 83.51094 | 38829 ft | 479 kts | 37° |
| 2026-05-04 08:06 | 16.25304 | 83.55491 | 38833 ft | 479 kts | 38° |
| 2026-05-04 08:08 | 16.45955 | 83.73124 | 38826 ft | 480 kts | 38° |
| 2026-05-04 08:11 | 16.69207 | 83.93037 | 38825 ft | 482 kts | 38° |
| 2026-05-04 08:11 | 16.76970 | 83.99700 | 38826 ft | 481 kts | 38° |
| 2026-05-04 08:12 | 16.82136 | 84.04138 | 38825 ft | 481 kts | 38° |
| 2026-05-04 08:12 | 16.87308 | 84.08570 | 38825 ft | 481 kts | 38° |
| 2026-05-04 08:13 | 16.92495 | 84.12984 | 38827 ft | 481 kts | 38° |
| 2026-05-04 08:13 | 16.97678 | 84.17392 | 38830 ft | 481 kts | 38° |
| 2026-05-04 08:14 | 17.02863 | 84.21809 | 38828 ft | 481 kts | 38° |
| 2026-05-04 08:16 | 17.23507 | 84.39441 | 38831 ft | 478 kts | 38° |
| 2026-05-04 08:16 | 17.28655 | 84.43845 | 38830 ft | 478 kts | 38° |
| 2026-05-04 08:17 | 17.33807 | 84.48257 | 38829 ft | 479 kts | 38° |
| 2026-05-04 08:17 | 17.38969 | 84.52670 | 38831 ft | 480 kts | 38° |
| 2026-05-04 08:19 | 17.59677 | 84.70330 | 38827 ft | 479 kts | 38° |
| 2026-05-04 08:20 | 17.64837 | 84.74741 | 38828 ft | 479 kts | 38° |
| 2026-05-04 08:20 | 17.69998 | 84.79162 | 38833 ft | 479 kts | 38° |
| 2026-05-04 08:21 | 17.75158 | 84.83597 | 38832 ft | 480 kts | 38° |
| 2026-05-04 08:21 | 17.80320 | 84.88040 | 38824 ft | 480 kts | 38° |
| 2026-05-04 08:22 | 17.85449 | 84.92455 | 38822 ft | 480 kts | 38° |
| 2026-05-04 08:24 | 18.06080 | 85.10249 | 38832 ft | 479 kts | 38° |
| 2026-05-04 08:24 | 18.11228 | 85.14698 | 38824 ft | 479 kts | 38° |
| 2026-05-04 08:25 | 18.16379 | 85.19152 | 38832 ft | 479 kts | 38° |
| 2026-05-04 08:25 | 18.21524 | 85.23605 | 38816 ft | 479 kts | 38° |
| 2026-05-04 08:27 | 18.42117 | 85.41463 | 38823 ft | 480 kts | 38° |
| 2026-05-04 08:28 | 18.47267 | 85.45938 | 38821 ft | 480 kts | 38° |
| 2026-05-04 08:28 | 18.52410 | 85.50410 | 38821 ft | 479 kts | 38° |
| 2026-05-04 08:29 | 18.57544 | 85.54879 | 38820 ft | 478 kts | 38° |
| 2026-05-04 08:31 | 18.78031 | 85.72744 | 38825 ft | 479 kts | 38° |
| 2026-05-04 08:33 | 18.98579 | 85.90659 | 38829 ft | 479 kts | 37° |
| 2026-05-04 08:35 | 19.19224 | 86.08480 | 38831 ft | 479 kts | 37° |
| 2026-05-04 08:35 | 19.24386 | 86.12950 | 38827 ft | 479 kts | 37° |
| 2026-05-04 08:37 | 19.42425 | 86.28601 | 38837 ft | 478 kts | 37° |
| 2026-05-04 08:38 | 19.47582 | 86.33082 | 38829 ft | 481 kts | 37° |
| 2026-05-04 08:38 | 19.52759 | 86.37585 | 38831 ft | 482 kts | 37° |
| 2026-05-04 08:40 | 19.73484 | 86.55616 | 38829 ft | 482 kts | 37° |
| 2026-05-04 08:41 | 19.78662 | 86.60120 | 38830 ft | 481 kts | 37° |
| 2026-05-04 08:41 | 19.83839 | 86.64628 | 38829 ft | 481 kts | 37° |
| 2026-05-04 08:42 | 19.89020 | 86.69144 | 38830 ft | 482 kts | 37° |
| 2026-05-04 08:42 | 19.94200 | 86.73662 | 38829 ft | 482 kts | 37° |
| 2026-05-04 08:43 | 19.99379 | 86.78181 | 38829 ft | 481 kts | 37° |
| 2026-05-04 08:43 | 20.04551 | 86.82698 | 38826 ft | 482 kts | 37° |
| 2026-05-04 08:44 | 20.09729 | 86.87223 | 38825 ft | 482 kts | 37° |
| 2026-05-04 08:46 | 20.30411 | 87.05341 | 38823 ft | 482 kts | 37° |
| 2026-05-04 08:46 | 20.35583 | 87.09881 | 38823 ft | 482 kts | 37° |
| 2026-05-04 08:47 | 20.40755 | 87.14426 | 38826 ft | 482 kts | 37° |
| 2026-05-04 08:47 | 20.45926 | 87.18973 | 38829 ft | 482 kts | 37° |
| 2026-05-04 08:48 | 20.50261 | 87.22785 | 38824 ft | 483 kts | 37° |
| 2026-05-04 08:48 | 20.55458 | 87.27350 | 38828 ft | 484 kts | 37° |
| 2026-05-04 08:49 | 20.60625 | 87.31892 | 38826 ft | 484 kts | 37° |
| 2026-05-04 08:50 | 20.78782 | 87.47894 | 38826 ft | 483 kts | 37° |
| 2026-05-04 08:51 | 20.83970 | 87.52471 | 38826 ft | 484 kts | 36° |
| 2026-05-04 08:51 | 20.89171 | 87.57052 | 38829 ft | 484 kts | 36° |
| 2026-05-04 08:52 | 20.94373 | 87.61637 | 38829 ft | 484 kts | 36° |
| 2026-05-04 08:52 | 20.99573 | 87.66226 | 38829 ft | 484 kts | 36° |
| 2026-05-04 08:54 | 21.20315 | 87.84577 | 38833 ft | 485 kts | 36° |
| 2026-05-04 08:55 | 21.25514 | 87.89186 | 38833 ft | 486 kts | 36° |
| 2026-05-04 08:55 | 21.30726 | 87.93813 | 38833 ft | 486 kts | 36° |
| 2026-05-04 08:57 | 21.50393 | 88.07368 | 38837 ft | 480 kts | 24° |
| 2026-05-04 09:01 | 21.91627 | 88.31037 | 38834 ft | 482 kts | 24° |
| 2026-05-04 09:01 | 21.97547 | 88.34455 | 38834 ft | 482 kts | 24° |
| 2026-05-04 09:02 | 22.03453 | 88.37870 | 38835 ft | 482 kts | 24° |
| 2026-05-04 09:02 | 22.09365 | 88.41290 | 38832 ft | 482 kts | 24° |
| 2026-05-04 09:03 | 22.15278 | 88.44714 | 38832 ft | 482 kts | 24° |
| 2026-05-04 09:03 | 22.21182 | 88.48136 | 38833 ft | 482 kts | 24° |
| 2026-05-04 09:04 | 22.27082 | 88.51559 | 38834 ft | 481 kts | 24° |
| 2026-05-04 09:04 | 22.32935 | 88.54959 | 38834 ft | 481 kts | 24° |
| 2026-05-04 09:04 | 22.35888 | 88.56674 | 38693 ft | 483 kts | 24° |
| 2026-05-04 09:05 | 22.38856 | 88.58398 | 38157 ft | 485 kts | 24° |
| 2026-05-04 09:05 | 22.41828 | 88.60126 | 37511 ft | 485 kts | 24° |
| 2026-05-04 09:05 | 22.44795 | 88.61854 | 36983 ft | 483 kts | 24° |
| 2026-05-04 09:05 | 22.47742 | 88.63571 | 36553 ft | 480 kts | 24° |
| 2026-05-04 09:06 | 22.50666 | 88.65276 | 36075 ft | 477 kts | 24° |
| 2026-05-04 09:07 | 22.71158 | 88.77230 | 31701 ft | 485 kts | 25° |
| 2026-05-04 09:08 | 22.74140 | 88.78974 | 30990 ft | 487 kts | 25° |
| 2026-05-04 09:08 | 22.77109 | 88.80712 | 30419 ft | 485 kts | 25° |
| 2026-05-04 09:08 | 22.80068 | 88.82446 | 29913 ft | 482 kts | 26° |
| 2026-05-04 09:08 | 22.83011 | 88.84172 | 29249 ft | 480 kts | 26° |
| 2026-05-04 09:09 | 22.85938 | 88.85889 | 28689 ft | 476 kts | 26° |
| 2026-05-04 09:09 | 22.88832 | 88.87587 | 28117 ft | 472 kts | 26° |
| 2026-05-04 09:09 | 22.91606 | 88.89468 | 27575 ft | 471 kts | 38° |
| 2026-05-04 09:09 | 22.93870 | 88.92030 | 26965 ft | 470 kts | 51° |
| 2026-05-04 09:10 | 22.95844 | 88.94840 | 26367 ft | 468 kts | 53° |
| 2026-05-04 09:10 | 22.97687 | 88.97738 | 25813 ft | 464 kts | 56° |
| 2026-05-04 09:10 | 22.99447 | 89.00666 | 25242 ft | 462 kts | 57° |
| 2026-05-04 09:10 | 23.01166 | 89.03591 | 24727 ft | 458 kts | 57° |
| 2026-05-04 09:11 | 23.02873 | 89.06502 | 24144 ft | 455 kts | 57° |
| 2026-05-04 09:11 | 23.04574 | 89.09384 | 23616 ft | 451 kts | 56° |
| 2026-05-04 09:11 | 23.06271 | 89.12235 | 22998 ft | 448 kts | 56° |
| 2026-05-04 09:11 | 23.07958 | 89.15052 | 22452 ft | 442 kts | 56° |
| 2026-05-04 09:12 | 23.09627 | 89.17828 | 21892 ft | 437 kts | 56° |
| 2026-05-04 09:12 | 23.11277 | 89.20568 | 21391 ft | 431 kts | 56° |
| 2026-05-04 09:14 | 23.22344 | 89.38968 | 17806 ft | 402 kts | 57° |
| 2026-05-04 09:14 | 23.23863 | 89.41501 | 17255 ft | 398 kts | 57° |
| 2026-05-04 09:14 | 23.25361 | 89.44000 | 16777 ft | 392 kts | 56° |
| 2026-05-04 09:14 | 23.26844 | 89.46476 | 16256 ft | 388 kts | 56° |
| 2026-05-04 09:15 | 23.28303 | 89.48914 | 15785 ft | 382 kts | 56° |
| 2026-05-04 09:15 | 23.29748 | 89.51327 | 15269 ft | 378 kts | 56° |
| 2026-05-04 09:15 | 23.31174 | 89.53712 | 14827 ft | 374 kts | 56° |
| 2026-05-04 09:15 | 23.32563 | 89.56034 | 14355 ft | 370 kts | 56° |
| 2026-05-04 09:17 | 23.42922 | 89.73953 | 10623 ft | 309 kts | 57° |
| 2026-05-04 09:18 | 23.44023 | 89.75922 | 10227 ft | 301 kts | 57° |
| 2026-05-04 09:18 | 23.45115 | 89.77873 | 10076 ft | 302 kts | 57° |
| 2026-05-04 09:18 | 23.46208 | 89.79827 | 9978 ft | 303 kts | 57° |
| 2026-05-04 09:18 | 23.47300 | 89.81782 | 9874 ft | 301 kts | 57° |
| 2026-05-04 09:19 | 23.48386 | 89.83725 | 9588 ft | 300 kts | 57° |
| 2026-05-04 09:19 | 23.49465 | 89.85658 | 9224 ft | 298 kts | 57° |
| 2026-05-04 09:19 | 23.50541 | 89.87586 | 8881 ft | 297 kts | 57° |
| 2026-05-04 09:19 | 23.51611 | 89.89504 | 8530 ft | 295 kts | 57° |
| 2026-05-04 09:20 | 23.52675 | 89.91411 | 8204 ft | 293 kts | 57° |
| 2026-05-04 09:20 | 23.53731 | 89.93305 | 7864 ft | 292 kts | 57° |
| 2026-05-04 09:20 | 23.54777 | 89.95182 | 7558 ft | 289 kts | 57° |
| 2026-05-04 09:20 | 23.55821 | 89.97057 | 7216 ft | 288 kts | 57° |
| 2026-05-04 09:21 | 23.56854 | 89.98914 | 6967 ft | 286 kts | 57° |
| 2026-05-04 09:21 | 23.57863 | 90.00728 | 6851 ft | 272 kts | 58° |
| 2026-05-04 09:21 | 23.58809 | 90.02432 | 6758 ft | 254 kts | 57° |
| 2026-05-04 09:21 | 23.59701 | 90.04030 | 6580 ft | 240 kts | 57° |
| 2026-05-04 09:22 | 23.60591 | 90.05536 | 6249 ft | 234 kts | 55° |
| 2026-05-04 09:22 | 23.61490 | 90.07013 | 5879 ft | 235 kts | 55° |
| 2026-05-04 09:22 | 23.62403 | 90.08504 | 5598 ft | 236 kts | 55° |
| 2026-05-04 09:22 | 23.63313 | 90.09988 | 5336 ft | 236 kts | 55° |
| 2026-05-04 09:23 | 23.64221 | 90.11470 | 5112 ft | 234 kts | 56° |
| 2026-05-04 09:23 | 23.65117 | 90.12932 | 4960 ft | 225 kts | 56° |
| 2026-05-04 09:23 | 23.65959 | 90.14308 | 4795 ft | 214 kts | 56° |
| 2026-05-04 09:23 | 23.66778 | 90.15646 | 4486 ft | 211 kts | 56° |
| 2026-05-04 09:25 | 23.73890 | 90.21669 | 3004 ft | 194 kts | 347° |
| 2026-05-04 09:25 | 23.75183 | 90.21255 | 3007 ft | 194 kts | 337° |
| 2026-05-04 09:26 | 23.76428 | 90.20688 | 3010 ft | 193 kts | 338° |
| 2026-05-04 09:26 | 23.77701 | 90.20199 | 2993 ft | 195 kts | 342° |
| 2026-05-04 09:26 | 23.79015 | 90.19836 | 2996 ft | 195 kts | 347° |
| 2026-05-04 09:26 | 23.80355 | 90.19595 | 2995 ft | 196 kts | 352° |
| 2026-05-04 09:27 | 23.81712 | 90.19472 | 3006 ft | 196 kts | 356° |
| 2026-05-04 09:27 | 23.83074 | 90.19458 | 3005 ft | 196 kts | 1° |
| 2026-05-04 09:27 | 23.84435 | 90.19551 | 2994 ft | 196 kts | 5° |
| 2026-05-04 09:27 | 23.85784 | 90.19746 | 3007 ft | 196 kts | 9° |
| 2026-05-04 09:28 | 23.87119 | 90.20043 | 2993 ft | 196 kts | 13° |
| 2026-05-04 09:28 | 23.88438 | 90.20442 | 2997 ft | 197 kts | 17° |
| 2026-05-04 09:28 | 23.89731 | 90.20939 | 3009 ft | 197 kts | 21° |
| 2026-05-04 09:28 | 23.90984 | 90.21530 | 2997 ft | 197 kts | 25° |
| 2026-05-04 09:29 | 23.92198 | 90.22215 | 2991 ft | 196 kts | 29° |
| 2026-05-04 09:29 | 23.93351 | 90.22983 | 2990 ft | 197 kts | 33° |
| 2026-05-04 09:29 | 23.94467 | 90.23844 | 3006 ft | 196 kts | 37° |
| 2026-05-04 09:29 | 23.95542 | 90.24799 | 3005 ft | 197 kts | 41° |
| 2026-05-04 09:30 | 23.96513 | 90.25829 | 2992 ft | 197 kts | 50° |
| 2026-05-04 09:30 | 23.97162 | 90.27142 | 2942 ft | 192 kts | 75° |
| 2026-05-04 09:30 | 23.97109 | 90.28523 | 2690 ft | 177 kts | 112° |
| 2026-05-04 09:30 | 23.96527 | 90.29614 | 2545 ft | 159 kts | 127° |
| 2026-05-04 09:31 | 23.95860 | 90.30479 | 2407 ft | 141 kts | 136° |
| 2026-05-04 09:31 | 23.95138 | 90.31150 | 2144 ft | 133 kts | 143° |
| 2026-05-04 09:31 | 23.94407 | 90.31740 | 1959 ft | 129 kts | 143° |
| 2026-05-04 09:31 | 23.93680 | 90.32316 | 1951 ft | 129 kts | 143° |
| 2026-05-04 09:32 | 23.92954 | 90.32904 | 1814 ft | 130 kts | 142° |
| 2026-05-04 09:32 | 23.92465 | 90.33298 | 1697 ft | 129 kts | 142° |
| 2026-05-04 09:34 | 23.87334 | 90.37394 | 520 ft | 126 kts | 142° |
| 2026-05-04 09:34 | 23.86627 | 90.37958 | 352 ft | 126 kts | 143° |
| 2026-05-04 09:34 | 23.85923 | 90.38519 | 181 ft | 124 kts | 143° |
| 2026-05-04 09:34 | 23.85237 | 90.39066 | 37 ft | 119 kts | 144° |
| 2026-05-04 09:35 | 23.84703 | 90.39488 | 34 ft | 80 kts | 144° |
| 2026-05-04 09:35 | 23.84292 | 90.39810 | 33 ft | 65 kts | 144° |
| 2026-05-04 09:35 | 23.84093 | 90.40007 | 34 ft | 27 kts | 124° |
| 2026-05-04 09:35 | 23.84015 | 90.40176 | 34 ft | 24 kts | 111° |
| 2026-05-04 09:37 | 23.84041 | 90.40442 | 34 ft | 9 kts | 58° |
| 2026-05-04 09:37 | 23.84175 | 90.40637 | 34 ft | 0 kts | 48° |
| 2026-05-04 09:38 | 23.84182 | 90.40645 | 34 ft | 3 kts | 48° |
| 2026-05-04 09:38 | 23.84202 | 90.40671 | 32 ft | 6 kts | 48° |
| 2026-05-04 09:38 | 23.84217 | 90.40690 | 34 ft | 2 kts | 50° |
| 2026-05-04 09:38 | 23.84228 | 90.40705 | 34 ft | 1 kts | 53° |
| 2026-05-04 09:39 | 23.84232 | 90.40711 | 34 ft | 2 kts | 53° |
| 2026-05-04 09:39 | 23.84256 | 90.40749 | 34 ft | 10 kts | 57° |
| 2026-05-04 09:39 | 23.84295 | 90.40814 | 34 ft | 8 kts | 57° |
| 2026-05-04 09:39 | 23.84309 | 90.40857 | 34 ft | 4 kts | 77° |
| 2026-05-04 09:40 | 23.84312 | 90.40914 | 34 ft | 11 kts | 82° |
| 2026-05-04 09:40 | 23.84334 | 90.40964 | 34 ft | 3 kts | 55° |
| 2026-05-04 09:40 | 23.84339 | 90.40971 | 34 ft | 2 kts | 53° |
| 2026-05-04 09:40 | 23.84346 | 90.40982 | 34 ft | 0 kts | 53° |
| 2026-05-04 09:41 | 23.84352 | 90.40991 | 34 ft | 4 kts | 54° |
| 2026-05-04 09:42 | 23.84365 | 90.41012 | 34 ft | 0 kts | 54° |